Terminal Aerodrome Forecast
Issued by NWS

Home | Current Version | Previous Version | Text Only | Print | Product List | Glossary On
Versions: 1 2 3 4 5 6 7 8 9 10 11 12 13 14 15 16 17 18
000
FTUS43 KDLH 062000 AAB
TAFHIB
TAF AMD
KHIB 062008Z 0620/0718 12011KT P6SM FEW015 BKN180
     FM070400 12009KT P6SM -SHRA BKN035 WS015/18040KT
     FM070700 13005KT 4SM -DZ BR VCSH OVC007 WS015/18040KT
     FM071600 15008KT 4SM BR SCT007 OVC010=

USA.gov is the U.S. government's official web portal to all federal, state and local government web resources and services.